< < Back
Terminal Aerodrome Forecast


Current Version              Previous Versions:   1  2  3  4  5  6  7  8  9  

Terminal Aerodrome Forecast

521
FTUS42 KJAX 251120
TAFSSI
TAF
KSSI 251120Z 2512/2612 20006KT P6SM SKC
     FM251500 13011KT P6SM SKC
     FM260400 17007KT P6SM SKC=

Latest METAR

608
SAUS70 KWBC 251356
MTRSSI
METAR KSSI 251353Z AUTO 21003KT 10SM CLR 29/22 A3009 RMK AO2 SLP191
T02940222 $


USA.gov is the U.S. government's official web portal to all federal, state and local government web resources and services.